sensor_id;sensor_type;location;lat;lon;timestamp;temperature;humidity
33207;DHT22;19565;46.602;11.534;2023-06-22T00:00:35;23.80;95.50
33207;DHT22;19565;46.602;11.534;2023-06-22T00:03:03;23.80;95.80
33207;DHT22;19565;46.602;11.534;2023-06-22T00:05:31;23.80;96.00
33207;DHT22;19565;46.602;11.534;2023-06-22T00:08:02;23.80;96.00
33207;DHT22;19565;46.602;11.534;2023-06-22T00:10:31;23.80;95.90
33207;DHT22;19565;46.602;11.534;2023-06-22T00:13:00;23.80;96.10
33207;DHT22;19565;46.602;11.534;2023-06-22T00:15:28;23.70;96.50
33207;DHT22;19565;46.602;11.534;2023-06-22T00:17:57;23.70;96.20
33207;DHT22;19565;46.602;11.534;2023-06-22T00:20:26;23.70;96.20
33207;DHT22;19565;46.602;11.534;2023-06-22T00:22:58;23.70;96.20
33207;DHT22;19565;46.602;11.534;2023-06-22T00:25:26;23.70;96.60
33207;DHT22;19565;46.602;11.534;2023-06-22T00:27:54;23.70;96.40
33207;DHT22;19565;46.602;11.534;2023-06-22T00:30:23;23.60;96.50
33207;DHT22;19565;46.602;11.534;2023-06-22T00:32:52;23.60;96.70
33207;DHT22;19565;46.602;11.534;2023-06-22T00:35:21;23.60;96.80
33207;DHT22;19565;46.602;11.534;2023-06-22T00:37:49;23.60;96.90
33207;DHT22;19565;46.602;11.534;2023-06-22T00:40:18;23.50;96.80
33207;DHT22;19565;46.602;11.534;2023-06-22T00:42:48;23.50;97.00
33207;DHT22;19565;46.602;11.534;2023-06-22T00:45:16;23.50;96.60
33207;DHT22;19565;46.602;11.534;2023-06-22T00:47:46;23.50;96.50
33207;DHT22;19565;46.602;11.534;2023-06-22T00:50:18;23.50;96.40
33207;DHT22;19565;46.602;11.534;2023-06-22T00:52:49;23.40;96.40
33207;DHT22;19565;46.602;11.534;2023-06-22T00:55:19;23.40;96.50
33207;DHT22;19565;46.602;11.534;2023-06-22T00:57:47;23.40;96.50
33207;DHT22;19565;46.602;11.534;2023-06-22T01:00:16;23.50;96.30
33207;DHT22;19565;46.602;11.534;2023-06-22T01:02:47;23.50;96.30
33207;DHT22;19565;46.602;11.534;2023-06-22T01:05:20;23.50;96.30
33207;DHT22;19565;46.602;11.534;2023-06-22T01:08:08;23.50;96.20
33207;DHT22;19565;46.602;11.534;2023-06-22T01:10:41;23.40;96.50
33207;DHT22;19565;46.602;11.534;2023-06-22T01:13:18;23.40;96.70
33207;DHT22;19565;46.602;11.534;2023-06-22T01:15:53;23.30;97.20
33207;DHT22;19565;46.602;11.534;2023-06-22T01:18:28;23.20;97.10
33207;DHT22;19565;46.602;11.534;2023-06-22T01:20:58;23.20;97.30
33207;DHT22;19565;46.602;11.534;2023-06-22T01:23:29;23.10;97.40
33207;DHT22;19565;46.602;11.534;2023-06-22T01:26:06;23.00;97.40
33207;DHT22;19565;46.602;11.534;2023-06-22T01:28:45;23.00;97.60
33207;DHT22;19565;46.602;11.534;2023-06-22T01:31:15;23.00;97.70
33207;DHT22;19565;46.602;11.534;2023-06-22T01:33:46;22.90;97.70
33207;DHT22;19565;46.602;11.534;2023-06-22T01:36:16;22.90;98.10
33207;DHT22;19565;46.602;11.534;2023-06-22T01:38:45;22.90;97.70
33207;DHT22;19565;46.602;11.534;2023-06-22T01:41:13;22.90;97.80
33207;DHT22;19565;46.602;11.534;2023-06-22T01:43:45;22.90;97.80
33207;DHT22;19565;46.602;11.534;2023-06-22T01:46:14;22.90;97.70
33207;DHT22;19565;46.602;11.534;2023-06-22T01:48:42;22.90;97.60
33207;DHT22;19565;46.602;11.534;2023-06-22T01:51:10;22.90;97.70
33207;DHT22;19565;46.602;11.534;2023-06-22T01:53:38;22.90;97.90
33207;DHT22;19565;46.602;11.534;2023-06-22T01:56:06;22.80;97.90
33207;DHT22;19565;46.602;11.534;2023-06-22T01:58:40;22.80;98.00
33207;DHT22;19565;46.602;11.534;2023-06-22T02:01:17;22.80;97.80
33207;DHT22;19565;46.602;11.534;2023-06-22T02:03:51;22.80;97.80
33207;DHT22;19565;46.602;11.534;2023-06-22T02:06:24;22.80;97.90
33207;DHT22;19565;46.602;11.534;2023-06-22T02:08:57;22.70;98.00
33207;DHT22;19565;46.602;11.534;2023-06-22T02:11:28;22.70;98.10
33207;DHT22;19565;46.602;11.534;2023-06-22T02:13:58;22.70;98.00
33207;DHT22;19565;46.602;11.534;2023-06-22T02:16:28;22.70;97.80
33207;DHT22;19565;46.602;11.534;2023-06-22T02:19:01;22.60;97.80
33207;DHT22;19565;46.602;11.534;2023-06-22T02:21:30;22.60;98.00
33207;DHT22;19565;46.602;11.534;2023-06-22T02:23:58;22.60;98.10
33207;DHT22;19565;46.602;11.534;2023-06-22T02:26:27;22.60;98.30
33207;DHT22;19565;46.602;11.534;2023-06-22T02:28:55;22.50;98.20
33207;DHT22;19565;46.602;11.534;2023-06-22T02:31:23;22.50;98.30
33207;DHT22;19565;46.602;11.534;2023-06-22T02:33:59;22.50;98.00
33207;DHT22;19565;46.602;11.534;2023-06-22T02:36:27;22.60;98.00
33207;DHT22;19565;46.602;11.534;2023-06-22T02:38:58;22.60;98.10
33207;DHT22;19565;46.602;11.534;2023-06-22T02:41:28;22.50;98.50
33207;DHT22;19565;46.602;11.534;2023-06-22T02:43:56;22.50;98.30
33207;DHT22;19565;46.602;11.534;2023-06-22T02:46:24;22.50;98.30
33207;DHT22;19565;46.602;11.534;2023-06-22T02:48:52;22.50;98.40
33207;DHT22;19565;46.602;11.534;2023-06-22T02:51:21;22.50;98.40
33207;DHT22;19565;46.602;11.534;2023-06-22T02:53:49;22.40;98.50
33207;DHT22;19565;46.602;11.534;2023-06-22T02:56:24;22.40;98.60
33207;DHT22;19565;46.602;11.534;2023-06-22T02:58:52;22.40;98.60
33207;DHT22;19565;46.602;11.534;2023-06-22T03:01:20;22.40;98.70
33207;DHT22;19565;46.602;11.534;2023-06-22T03:03:51;22.30;98.60
33207;DHT22;19565;46.602;11.534;2023-06-22T03:06:20;22.30;98.70
33207;DHT22;19565;46.602;11.534;2023-06-22T03:08:50;22.30;98.90
33207;DHT22;19565;46.602;11.534;2023-06-22T03:11:18;22.20;98.90
33207;DHT22;19565;46.602;11.534;2023-06-22T03:13:46;22.20;99.00
33207;DHT22;19565;46.602;11.534;2023-06-22T03:16:14;22.20;99.00
33207;DHT22;19565;46.602;11.534;2023-06-22T03:18:42;22.20;99.10
33207;DHT22;19565;46.602;11.534;2023-06-22T03:21:10;22.10;99.10
33207;DHT22;19565;46.602;11.534;2023-06-22T03:23:39;22.20;99.20
33207;DHT22;19565;46.602;11.534;2023-06-22T03:26:08;22.10;99.00
33207;DHT22;19565;46.602;11.534;2023-06-22T03:28:37;22.20;99.00
33207;DHT22;19565;46.602;11.534;2023-06-22T03:31:05;22.10;99.00
33207;DHT22;19565;46.602;11.534;2023-06-22T03:33:34;22.20;99.10
33207;DHT22;19565;46.602;11.534;2023-06-22T03:36:02;22.10;99.10
33207;DHT22;19565;46.602;11.534;2023-06-22T03:38:30;22.10;99.10
33207;DHT22;19565;46.602;11.534;2023-06-22T03:41:00;22.10;99.20
33207;DHT22;19565;46.602;11.534;2023-06-22T03:43:28;22.10;99.40
33207;DHT22;19565;46.602;11.534;2023-06-22T03:45:56;22.10;99.40
33207;DHT22;19565;46.602;11.534;2023-06-22T03:48:24;22.10;99.40
33207;DHT22;19565;46.602;11.534;2023-06-22T03:50:52;22.10;99.50
33207;DHT22;19565;46.602;11.534;2023-06-22T03:53:20;22.10;99.60
33207;DHT22;19565;46.602;11.534;2023-06-22T03:55:49;22.10;99.60
33207;DHT22;19565;46.602;11.534;2023-06-22T03:58:20;22.10;99.70
33207;DHT22;19565;46.602;11.534;2023-06-22T04:00:49;22.10;99.70
33207;DHT22;19565;46.602;11.534;2023-06-22T04:03:18;22.00;99.90
33207;DHT22;19565;46.602;11.534;2023-06-22T04:05:47;22.00;99.80
33207;DHT22;19565;46.602;11.534;2023-06-22T04:08:15;22.00;99.70
33207;DHT22;19565;46.602;11.534;2023-06-22T04:10:44;22.10;99.80
33207;DHT22;19565;46.602;11.534;2023-06-22T04:13:12;22.10;99.80
33207;DHT22;19565;46.602;11.534;2023-06-22T04:15:41;22.10;99.80
33207;DHT22;19565;46.602;11.534;2023-06-22T04:18:09;22.10;99.60
33207;DHT22;19565;46.602;11.534;2023-06-22T04:20:37;22.20;99.50
33207;DHT22;19565;46.602;11.534;2023-06-22T04:23:06;22.20;99.50
33207;DHT22;19565;46.602;11.534;2023-06-22T04:25:34;22.20;99.50
33207;DHT22;19565;46.602;11.534;2023-06-22T04:28:02;22.20;99.70
33207;DHT22;19565;46.602;11.534;2023-06-22T04:30:33;22.20;99.70
33207;DHT22;19565;46.602;11.534;2023-06-22T04:33:02;22.20;99.80
33207;DHT22;19565;46.602;11.534;2023-06-22T04:35:30;22.20;99.90
33207;DHT22;19565;46.602;11.534;2023-06-22T04:37:58;22.20;99.90
33207;DHT22;19565;46.602;11.534;2023-06-22T04:40:26;22.20;99.90
33207;DHT22;19565;46.602;11.534;2023-06-22T04:42:55;22.20;99.90
33207;DHT22;19565;46.602;11.534;2023-06-22T04:45:23;22.30;99.90
33207;DHT22;19565;46.602;11.534;2023-06-22T04:47:51;22.30;99.90
33207;DHT22;19565;46.602;11.534;2023-06-22T04:50:20;22.40;99.90
33207;DHT22;19565;46.602;11.534;2023-06-22T04:52:51;22.40;99.90
33207;DHT22;19565;46.602;11.534;2023-06-22T04:55:20;22.40;99.90
33207;DHT22;19565;46.602;11.534;2023-06-22T04:57:48;22.40;99.90
33207;DHT22;19565;46.602;11.534;2023-06-22T05:00:18;22.40;99.90
33207;DHT22;19565;46.602;11.534;2023-06-22T05:02:47;22.40;99.90
33207;DHT22;19565;46.602;11.534;2023-06-22T05:05:15;22.50;99.90
33207;DHT22;19565;46.602;11.534;2023-06-22T05:07:46;22.50;99.90
33207;DHT22;19565;46.602;11.534;2023-06-22T05:10:17;22.50;99.90
33207;DHT22;19565;46.602;11.534;2023-06-22T05:12:46;22.50;99.30
33207;DHT22;19565;46.602;11.534;2023-06-22T05:15:14;22.50;98.80
33207;DHT22;19565;46.602;11.534;2023-06-22T05:17:42;22.50;98.60
33207;DHT22;19565;46.602;11.534;2023-06-22T05:20:13;22.60;98.90
33207;DHT22;19565;46.602;11.534;2023-06-22T05:22:46;22.70;99.10
33207;DHT22;19565;46.602;11.534;2023-06-22T05:25:14;22.70;98.40
33207;DHT22;19565;46.602;11.534;2023-06-22T05:27:42;22.80;98.30
33207;DHT22;19565;46.602;11.534;2023-06-22T05:30:11;22.90;98.20
33207;DHT22;19565;46.602;11.534;2023-06-22T05:32:39;22.80;98.00
33207;DHT22;19565;46.602;11.534;2023-06-22T05:35:08;22.70;97.80
33207;DHT22;19565;46.602;11.534;2023-06-22T05:37:36;22.60;97.90
33207;DHT22;19565;46.602;11.534;2023-06-22T05:40:07;22.30;97.80
33207;DHT22;19565;46.602;11.534;2023-06-22T05:42:36;22.20;98.20
33207;DHT22;19565;46.602;11.534;2023-06-22T05:45:05;22.00;98.40
33207;DHT22;19565;46.602;11.534;2023-06-22T05:47:33;22.10;98.60
33207;DHT22;19565;46.602;11.534;2023-06-22T05:50:02;22.20;98.50
33207;DHT22;19565;46.602;11.534;2023-06-22T05:52:33;22.20;98.40
33207;DHT22;19565;46.602;11.534;2023-06-22T05:55:02;22.30;98.30
33207;DHT22;19565;46.602;11.534;2023-06-22T05:57:32;22.50;98.10
33207;DHT22;19565;46.602;11.534;2023-06-22T06:00:00;22.50;97.60
33207;DHT22;19565;46.602;11.534;2023-06-22T06:02:28;22.60;97.50
33207;DHT22;19565;46.602;11.534;2023-06-22T06:04:56;22.50;97.20
33207;DHT22;19565;46.602;11.534;2023-06-22T06:07:24;22.50;97.50
33207;DHT22;19565;46.602;11.534;2023-06-22T06:09:53;22.50;97.50
33207;DHT22;19565;46.602;11.534;2023-06-22T06:12:21;22.60;97.30
33207;DHT22;19565;46.602;11.534;2023-06-22T06:14:50;22.70;97.30
33207;DHT22;19565;46.602;11.534;2023-06-22T06:17:20;22.80;96.90
33207;DHT22;19565;46.602;11.534;2023-06-22T06:19:48;22.90;96.40
33207;DHT22;19565;46.602;11.534;2023-06-22T06:22:16;23.00;96.20
33207;DHT22;19565;46.602;11.534;2023-06-22T06:24:45;23.00;96.30
33207;DHT22;19565;46.602;11.534;2023-06-22T06:27:14;23.00;95.90
33207;DHT22;19565;46.602;11.534;2023-06-22T06:29:42;23.20;95.80
33207;DHT22;19565;46.602;11.534;2023-06-22T06:32:13;23.30;95.80
33207;DHT22;19565;46.602;11.534;2023-06-22T06:34:41;23.30;95.40
33207;DHT22;19565;46.602;11.534;2023-06-22T06:37:10;23.30;95.40
33207;DHT22;19565;46.602;11.534;2023-06-22T06:39:38;23.30;95.10
33207;DHT22;19565;46.602;11.534;2023-06-22T06:42:08;23.30;95.20
33207;DHT22;19565;46.602;11.534;2023-06-22T06:44:37;23.30;95.50
33207;DHT22;19565;46.602;11.534;2023-06-22T06:47:05;23.30;95.20
33207;DHT22;19565;46.602;11.534;2023-06-22T06:49:35;23.30;95.50
33207;DHT22;19565;46.602;11.534;2023-06-22T06:52:04;23.30;95.60
33207;DHT22;19565;46.602;11.534;2023-06-22T06:54:32;23.30;95.50
33207;DHT22;19565;46.602;11.534;2023-06-22T06:57:00;23.30;95.50
33207;DHT22;19565;46.602;11.534;2023-06-22T06:59:30;23.40;95.60
33207;DHT22;19565;46.602;11.534;2023-06-22T07:01:58;23.50;94.80
33207;DHT22;19565;46.602;11.534;2023-06-22T07:04:26;23.60;94.80
33207;DHT22;19565;46.602;11.534;2023-06-22T07:06:55;23.70;94.90
33207;DHT22;19565;46.602;11.534;2023-06-22T07:09:23;23.80;94.60
33207;DHT22;19565;46.602;11.534;2023-06-22T07:11:51;23.90;94.60
33207;DHT22;19565;46.602;11.534;2023-06-22T07:14:19;24.00;94.40
33207;DHT22;19565;46.602;11.534;2023-06-22T07:16:47;24.10;94.30
33207;DHT22;19565;46.602;11.534;2023-06-22T07:19:15;24.10;93.90
33207;DHT22;19565;46.602;11.534;2023-06-22T07:21:43;24.20;93.60
33207;DHT22;19565;46.602;11.534;2023-06-22T07:24:13;24.20;93.50
33207;DHT22;19565;46.602;11.534;2023-06-22T07:26:41;24.30;93.30
33207;DHT22;19565;46.602;11.534;2023-06-22T07:29:12;24.30;93.20
33207;DHT22;19565;46.602;11.534;2023-06-22T07:31:40;24.40;93.20
33207;DHT22;19565;46.602;11.534;2023-06-22T07:34:08;24.40;93.10
33207;DHT22;19565;46.602;11.534;2023-06-22T07:36:36;24.40;92.90
33207;DHT22;19565;46.602;11.534;2023-06-22T07:39:04;24.50;92.60
33207;DHT22;19565;46.602;11.534;2023-06-22T07:41:34;24.40;92.70
33207;DHT22;19565;46.602;11.534;2023-06-22T07:44:02;24.40;92.60
33207;DHT22;19565;46.602;11.534;2023-06-22T07:46:30;24.40;92.60
33207;DHT22;19565;46.602;11.534;2023-06-22T07:48:58;24.40;91.70
33207;DHT22;19565;46.602;11.534;2023-06-22T07:51:28;24.50;92.10
33207;DHT22;19565;46.602;11.534;2023-06-22T07:53:56;24.50;91.90
33207;DHT22;19565;46.602;11.534;2023-06-22T07:56:24;24.50;91.50
33207;DHT22;19565;46.602;11.534;2023-06-22T07:58:53;24.60;91.60
33207;DHT22;19565;46.602;11.534;2023-06-22T08:01:21;24.60;91.40
33207;DHT22;19565;46.602;11.534;2023-06-22T08:03:50;24.70;91.20
33207;DHT22;19565;46.602;11.534;2023-06-22T08:06:18;24.80;91.20
33207;DHT22;19565;46.602;11.534;2023-06-22T08:08:46;24.90;91.30
33207;DHT22;19565;46.602;11.534;2023-06-22T08:11:15;25.00;91.30
33207;DHT22;19565;46.602;11.534;2023-06-22T08:13:43;25.10;91.60
33207;DHT22;19565;46.602;11.534;2023-06-22T08:16:13;25.20;92.20
33207;DHT22;19565;46.602;11.534;2023-06-22T08:18:41;25.30;91.60
33207;DHT22;19565;46.602;11.534;2023-06-22T08:21:09;25.40;91.20
33207;DHT22;19565;46.602;11.534;2023-06-22T08:23:38;25.40;91.20
33207;DHT22;19565;46.602;11.534;2023-06-22T08:26:06;25.50;90.60
33207;DHT22;19565;46.602;11.534;2023-06-22T08:28:34;25.50;90.00
33207;DHT22;19565;46.602;11.534;2023-06-22T08:31:03;25.50;90.40
33207;DHT22;19565;46.602;11.534;2023-06-22T08:33:32;25.50;90.60
33207;DHT22;19565;46.602;11.534;2023-06-22T08:36:02;25.50;90.30
33207;DHT22;19565;46.602;11.534;2023-06-22T08:38:32;25.50;89.40
33207;DHT22;19565;46.602;11.534;2023-06-22T08:41:00;25.50;90.00
33207;DHT22;19565;46.602;11.534;2023-06-22T08:43:29;25.40;90.40
33207;DHT22;19565;46.602;11.534;2023-06-22T08:45:57;25.40;90.50
33207;DHT22;19565;46.602;11.534;2023-06-22T08:48:25;25.50;90.30
33207;DHT22;19565;46.602;11.534;2023-06-22T08:50:55;25.60;90.40
33207;DHT22;19565;46.602;11.534;2023-06-22T08:53:23;25.60;90.00
33207;DHT22;19565;46.602;11.534;2023-06-22T08:55:51;25.50;86.70
33207;DHT22;19565;46.602;11.534;2023-06-22T08:58:19;25.60;88.00
33207;DHT22;19565;46.602;11.534;2023-06-22T09:00:48;25.60;89.50
33207;DHT22;19565;46.602;11.534;2023-06-22T09:03:18;25.70;89.30
33207;DHT22;19565;46.602;11.534;2023-06-22T09:05:47;25.70;88.40
33207;DHT22;19565;46.602;11.534;2023-06-22T09:08:17;25.70;88.00
33207;DHT22;19565;46.602;11.534;2023-06-22T09:10:45;25.80;88.50
33207;DHT22;19565;46.602;11.534;2023-06-22T09:13:13;25.80;87.90
33207;DHT22;19565;46.602;11.534;2023-06-22T09:15:41;25.80;87.50
33207;DHT22;19565;46.602;11.534;2023-06-22T09:18:10;25.90;87.50
33207;DHT22;19565;46.602;11.534;2023-06-22T09:20:39;26.00;87.30
33207;DHT22;19565;46.602;11.534;2023-06-22T09:23:07;26.00;87.30
33207;DHT22;19565;46.602;11.534;2023-06-22T09:25:36;26.10;87.60
33207;DHT22;19565;46.602;11.534;2023-06-22T09:28:04;26.10;86.60
33207;DHT22;19565;46.602;11.534;2023-06-22T09:30:32;26.20;85.80
33207;DHT22;19565;46.602;11.534;2023-06-22T09:33:00;26.20;86.20
33207;DHT22;19565;46.602;11.534;2023-06-22T09:35:29;26.30;85.70
33207;DHT22;19565;46.602;11.534;2023-06-22T09:37:57;26.40;85.20
33207;DHT22;19565;46.602;11.534;2023-06-22T09:40:25;26.50;84.90
33207;DHT22;19565;46.602;11.534;2023-06-22T09:42:55;26.50;84.50
33207;DHT22;19565;46.602;11.534;2023-06-22T09:45:23;26.70;83.70
33207;DHT22;19565;46.602;11.534;2023-06-22T09:47:51;26.80;83.70
33207;DHT22;19565;46.602;11.534;2023-06-22T09:50:19;26.80;83.10
33207;DHT22;19565;46.602;11.534;2023-06-22T09:52:47;27.00;83.70
33207;DHT22;19565;46.602;11.534;2023-06-22T09:55:21;27.10;82.80
33207;DHT22;19565;46.602;11.534;2023-06-22T09:57:49;27.10;81.60
33207;DHT22;19565;46.602;11.534;2023-06-22T10:00:19;27.20;83.70
33207;DHT22;19565;46.602;11.534;2023-06-22T10:02:48;27.30;83.90
33207;DHT22;19565;46.602;11.534;2023-06-22T10:05:17;27.40;83.00
33207;DHT22;19565;46.602;11.534;2023-06-22T10:07:46;27.40;81.60
33207;DHT22;19565;46.602;11.534;2023-06-22T10:10:14;27.40;81.60
33207;DHT22;19565;46.602;11.534;2023-06-22T10:12:56;27.50;82.20
33207;DHT22;19565;46.602;11.534;2023-06-22T10:15:25;27.50;83.30
33207;DHT22;19565;46.602;11.534;2023-06-22T10:17:55;27.60;83.50
33207;DHT22;19565;46.602;11.534;2023-06-22T10:20:23;27.70;83.80
33207;DHT22;19565;46.602;11.534;2023-06-22T10:22:52;27.80;84.70
33207;DHT22;19565;46.602;11.534;2023-06-22T10:25:22;27.90;84.10
33207;DHT22;19565;46.602;11.534;2023-06-22T10:27:50;28.00;84.10
33207;DHT22;19565;46.602;11.534;2023-06-22T10:30:18;28.10;82.70
33207;DHT22;19565;46.602;11.534;2023-06-22T10:32:48;28.20;81.60
33207;DHT22;19565;46.602;11.534;2023-06-22T10:35:16;28.20;82.30
33207;DHT22;19565;46.602;11.534;2023-06-22T10:37:44;28.20;82.40
33207;DHT22;19565;46.602;11.534;2023-06-22T10:40:13;28.30;82.80
33207;DHT22;19565;46.602;11.534;2023-06-22T10:42:42;28.30;82.20
33207;DHT22;19565;46.602;11.534;2023-06-22T10:45:11;28.40;80.40
33207;DHT22;19565;46.602;11.534;2023-06-22T10:47:39;28.40;80.80
33207;DHT22;19565;46.602;11.534;2023-06-22T10:50:10;28.40;79.80
33207;DHT22;19565;46.602;11.534;2023-06-22T10:52:39;28.40;79.90
33207;DHT22;19565;46.602;11.534;2023-06-22T10:55:09;28.40;80.10
33207;DHT22;19565;46.602;11.534;2023-06-22T10:57:37;28.50;81.30
33207;DHT22;19565;46.602;11.534;2023-06-22T11:00:11;28.50;80.70
33207;DHT22;19565;46.602;11.534;2023-06-22T11:02:39;28.60;80.00
33207;DHT22;19565;46.602;11.534;2023-06-22T11:05:07;28.60;80.30
33207;DHT22;19565;46.602;11.534;2023-06-22T11:07:41;28.70;80.30
33207;DHT22;19565;46.602;11.534;2023-06-22T11:10:14;28.70;80.20
33207;DHT22;19565;46.602;11.534;2023-06-22T11:12:42;28.80;82.40
33207;DHT22;19565;46.602;11.534;2023-06-22T11:15:11;28.90;80.60
33207;DHT22;19565;46.602;11.534;2023-06-22T11:17:39;28.90;79.90
33207;DHT22;19565;46.602;11.534;2023-06-22T11:20:08;29.00;79.40
33207;DHT22;19565;46.602;11.534;2023-06-22T11:22:40;29.00;80.90
33207;DHT22;19565;46.602;11.534;2023-06-22T11:25:09;29.10;79.80
33207;DHT22;19565;46.602;11.534;2023-06-22T11:27:38;29.10;79.70
33207;DHT22;19565;46.602;11.534;2023-06-22T11:30:07;29.10;79.70
33207;DHT22;19565;46.602;11.534;2023-06-22T11:32:36;29.10;79.50
33207;DHT22;19565;46.602;11.534;2023-06-22T11:35:04;29.20;80.60
33207;DHT22;19565;46.602;11.534;2023-06-22T11:37:33;29.30;81.10
33207;DHT22;19565;46.602;11.534;2023-06-22T11:40:02;29.30;80.80
33207;DHT22;19565;46.602;11.534;2023-06-22T11:42:34;29.40;80.80
33207;DHT22;19565;46.602;11.534;2023-06-22T11:45:04;29.40;80.90
33207;DHT22;19565;46.602;11.534;2023-06-22T11:47:32;29.50;81.00
33207;DHT22;19565;46.602;11.534;2023-06-22T11:50:00;29.50;79.30
33207;DHT22;19565;46.602;11.534;2023-06-22T11:52:28;29.50;78.50
33207;DHT22;19565;46.602;11.534;2023-06-22T11:54:56;29.50;78.00
33207;DHT22;19565;46.602;11.534;2023-06-22T11:57:27;29.50;78.70
33207;DHT22;19565;46.602;11.534;2023-06-22T11:59:55;29.50;77.70
33207;DHT22;19565;46.602;11.534;2023-06-22T12:02:23;29.50;77.10
33207;DHT22;19565;46.602;11.534;2023-06-22T12:04:51;29.60;77.00
33207;DHT22;19565;46.602;11.534;2023-06-22T12:07:22;29.60;77.30
33207;DHT22;19565;46.602;11.534;2023-06-22T12:09:50;29.60;76.80
33207;DHT22;19565;46.602;11.534;2023-06-22T12:12:18;29.60;76.50
33207;DHT22;19565;46.602;11.534;2023-06-22T12:14:48;29.60;75.70
33207;DHT22;19565;46.602;11.534;2023-06-22T12:17:16;29.60;75.80
33207;DHT22;19565;46.602;11.534;2023-06-22T12:19:44;29.60;75.90
33207;DHT22;19565;46.602;11.534;2023-06-22T12:22:12;29.70;75.50
33207;DHT22;19565;46.602;11.534;2023-06-22T12:24:40;29.70;74.30
33207;DHT22;19565;46.602;11.534;2023-06-22T12:27:08;29.70;75.30
33207;DHT22;19565;46.602;11.534;2023-06-22T12:29:37;29.80;74.60
33207;DHT22;19565;46.602;11.534;2023-06-22T12:32:07;29.80;74.30
33207;DHT22;19565;46.602;11.534;2023-06-22T12:34:35;29.80;73.80
33207;DHT22;19565;46.602;11.534;2023-06-22T12:37:03;29.90;73.30
33207;DHT22;19565;46.602;11.534;2023-06-22T12:39:32;29.90;73.20
33207;DHT22;19565;46.602;11.534;2023-06-22T12:42:00;30.00;73.10
33207;DHT22;19565;46.602;11.534;2023-06-22T12:44:28;30.00;71.90
33207;DHT22;19565;46.602;11.534;2023-06-22T12:46:56;30.00;71.60
33207;DHT22;19565;46.602;11.534;2023-06-22T12:49:26;30.00;70.90
33207;DHT22;19565;46.602;11.534;2023-06-22T12:51:54;30.10;71.50
33207;DHT22;19565;46.602;11.534;2023-06-22T12:54:22;30.10;71.30
33207;DHT22;19565;46.602;11.534;2023-06-22T12:56:50;30.10;70.90
33207;DHT22;19565;46.602;11.534;2023-06-22T12:59:20;30.20;70.90
33207;DHT22;19565;46.602;11.534;2023-06-22T13:01:48;30.30;70.30
33207;DHT22;19565;46.602;11.534;2023-06-22T13:04:16;30.30;69.40
33207;DHT22;19565;46.602;11.534;2023-06-22T13:06:47;30.30;70.00
33207;DHT22;19565;46.602;11.534;2023-06-22T13:09:18;30.30;70.70
33207;DHT22;19565;46.602;11.534;2023-06-22T13:11:47;30.30;70.50
33207;DHT22;19565;46.602;11.534;2023-06-22T13:14:16;30.30;70.80
33207;DHT22;19565;46.602;11.534;2023-06-22T13:16:44;30.30;71.60
33207;DHT22;19565;46.602;11.534;2023-06-22T13:19:12;30.30;71.30
33207;DHT22;19565;46.602;11.534;2023-06-22T13:21:40;30.30;72.00
33207;DHT22;19565;46.602;11.534;2023-06-22T13:24:09;30.40;71.50
33207;DHT22;19565;46.602;11.534;2023-06-22T13:26:37;30.40;71.10
33207;DHT22;19565;46.602;11.534;2023-06-22T13:29:05;30.40;71.10
33207;DHT22;19565;46.602;11.534;2023-06-22T13:31:33;30.50;71.40
33207;DHT22;19565;46.602;11.534;2023-06-22T13:34:01;30.50;71.70
33207;DHT22;19565;46.602;11.534;2023-06-22T13:36:29;30.60;72.40
33207;DHT22;19565;46.602;11.534;2023-06-22T13:38:58;30.70;72.20
33207;DHT22;19565;46.602;11.534;2023-06-22T13:41:27;30.80;72.10
33207;DHT22;19565;46.602;11.534;2023-06-22T13:43:55;30.90;72.90
33207;DHT22;19565;46.602;11.534;2023-06-22T13:46:23;30.90;72.60
33207;DHT22;19565;46.602;11.534;2023-06-22T13:48:51;30.90;71.60
33207;DHT22;19565;46.602;11.534;2023-06-22T13:51:22;31.00;71.70
33207;DHT22;19565;46.602;11.534;2023-06-22T13:53:50;31.10;70.90
33207;DHT22;19565;46.602;11.534;2023-06-22T13:56:18;31.20;70.90
33207;DHT22;19565;46.602;11.534;2023-06-22T13:58:48;31.20;70.10
33207;DHT22;19565;46.602;11.534;2023-06-22T14:01:16;31.30;70.60
33207;DHT22;19565;46.602;11.534;2023-06-22T14:03:44;31.30;70.10
33207;DHT22;19565;46.602;11.534;2023-06-22T14:06:13;31.40;69.50
33207;DHT22;19565;46.602;11.534;2023-06-22T14:08:41;31.40;69.80
33207;DHT22;19565;46.602;11.534;2023-06-22T14:11:10;31.60;69.70
33207;DHT22;19565;46.602;11.534;2023-06-22T14:13:38;31.60;68.80
33207;DHT22;19565;46.602;11.534;2023-06-22T14:16:10;31.80;69.50
33207;DHT22;19565;46.602;11.534;2023-06-22T14:18:38;31.90;70.90
33207;DHT22;19565;46.602;11.534;2023-06-22T14:21:06;32.10;68.80
33207;DHT22;19565;46.602;11.534;2023-06-22T14:23:34;32.20;68.20
33207;DHT22;19565;46.602;11.534;2023-06-22T14:26:04;32.50;67.70
33207;DHT22;19565;46.602;11.534;2023-06-22T14:28:32;33.00;65.30
33207;DHT22;19565;46.602;11.534;2023-06-22T14:31:00;33.50;63.80
33207;DHT22;19565;46.602;11.534;2023-06-22T14:33:29;33.70;61.50
33207;DHT22;19565;46.602;11.534;2023-06-22T14:35:57;33.60;62.20
33207;DHT22;19565;46.602;11.534;2023-06-22T14:38:25;33.50;63.00
33207;DHT22;19565;46.602;11.534;2023-06-22T14:40:54;33.40;62.20
33207;DHT22;19565;46.602;11.534;2023-06-22T14:43:44;33.40;62.40
33207;DHT22;19565;46.602;11.534;2023-06-22T14:46:13;33.50;64.30
33207;DHT22;19565;46.602;11.534;2023-06-22T14:48:43;33.50;63.80
33207;DHT22;19565;46.602;11.534;2023-06-22T14:51:12;33.40;65.00
33207;DHT22;19565;46.602;11.534;2023-06-22T14:53:44;33.20;65.40
33207;DHT22;19565;46.602;11.534;2023-06-22T14:56:13;33.30;65.70
33207;DHT22;19565;46.602;11.534;2023-06-22T14:58:43;33.30;68.50
33207;DHT22;19565;46.602;11.534;2023-06-22T15:01:13;33.20;67.60
33207;DHT22;19565;46.602;11.534;2023-06-22T15:03:42;32.90;66.60
33207;DHT22;19565;46.602;11.534;2023-06-22T15:06:11;32.70;67.40
33207;DHT22;19565;46.602;11.534;2023-06-22T15:08:39;32.70;68.40
33207;DHT22;19565;46.602;11.534;2023-06-22T15:11:07;32.90;69.20
33207;DHT22;19565;46.602;11.534;2023-06-22T15:13:39;33.00;68.50
33207;DHT22;19565;46.602;11.534;2023-06-22T15:16:07;32.90;70.70
33207;DHT22;19565;46.602;11.534;2023-06-22T15:18:36;32.90;68.20
33207;DHT22;19565;46.602;11.534;2023-06-22T15:21:06;33.00;68.70
33207;DHT22;19565;46.602;11.534;2023-06-22T15:23:34;33.40;67.20
33207;DHT22;19565;46.602;11.534;2023-06-22T15:26:03;33.90;64.10